Reklama

Seznam meteostanic a jejich METAR

Vyhledat místa podle abecedy:
A B C D E F G H I J K L M N O P Q R S T U V W X Y Z

Filtrovat:

ID stanice:
a/nebo
Název místa (fulltext):
 
Místo (ID)Naposledy načteno 
Brno - Tuřany (Brno/Tu) 13.11.2018 20:00 UTC Zobrazit data
Místo: Brno - Tuřany
Teplota: 8 °C (pocitová: 5.5 °C)
Vítr: 1 m/s z(e) 160°
Počasí: skorojasno
Dohlednost: 15 km
Zákl. oblačnosti: 1/8 810 m
Vlhkost: 93%
Červená - Opava (Cervena/uL) 13.11.2018 20:00 UTC Zobrazit data
Místo: Červená - Opava
Teplota: 7 °C (pocitová: 0.6 °C)
Vítr: 5 m/s z(e) 270°
Počasí: zataženo
Dohlednost: 5 km
Zákl. oblačnosti: 3/8 90 m;7/8 1140 m
Vlhkost: 93%
České Budějovice (C.Budej/po) 13.11.2018 20:00 UTC Zobrazit data
Místo: České Budějovice
Teplota: 8 °C (pocitová: 4.4 °C)
Vítr: 2 m/s z(e) 220°
Počasí: oblačno
Dohlednost: 21 km
Zákl. oblačnosti: 1/8 1080 m;3/8 1500 m
Vlhkost: 87%
Cheb (Cheb) 13.11.2018 20:00 UTC Zobrazit data
Místo: Cheb
Teplota: 8 °C (pocitová: 3.3 °C)
Vítr: 3 m/s z(e) 220°
Počasí: oblačno
Dohlednost: 35 km
Zákl. oblačnosti: 3/8 1500 m
Vlhkost: 87%
Chotusice - Čáslav (Caslav) 13.11.2018 20:00 UTC Zobrazit data
Místo: Chotusice - Čáslav
Teplota: 9 °C (pocitová: 3.4 °C)
Vítr: 5 m/s z(e) 270°
Počasí: skorojasno
Dohlednost: 20 km
Zákl. oblačnosti: 2/8 1800 m
Vlhkost: 87%
Churáňov (Churanov) 13.11.2018 20:00 UTC Zobrazit data
Místo: Churáňov
Teplota: 4 °C (pocitová: -4.1 °C)
Vítr: 6 m/s z(e) 250°
Počasí: oblačno
Dohlednost: 35 km
Zákl. oblačnosti: 4/8 600 m
Vlhkost: 81%
Doksany - Litoměřice (Doksany) 13.11.2018 20:00 UTC Zobrazit data
Místo: Doksany - Litoměřice
Teplota: 6 °C (pocitová: 3.1 °C)
Vítr: 1 m/s z(e) 0°
Počasí: zataženo
Dohlednost: 8 km
Zákl. oblačnosti: N/A
Vlhkost: 100%
Dukovany (Dukovany) 13.11.2018 20:00 UTC Zobrazit data
Místo: Dukovany
Teplota: 8 °C (pocitová: 2 °C)
Vítr: 5 m/s z(e) 270°
Počasí: slunečno
Dohlednost: 20 km
Zákl. oblačnosti: N/A
Vlhkost: 87%
Holešov (Holesov) 13.11.2018 20:00 UTC Zobrazit data
Místo: Holešov
Teplota: 10 °C (pocitová: 8 °C)
Vítr: 1 m/s z(e) 50°
Počasí: zataženo
Dohlednost: 3500 m
Zákl. oblačnosti: 8/8 600 m
Vlhkost: 88%
Kadaň - Tušimice (Tusimice) 13.11.2018 20:00 UTC Zobrazit data
Místo: Kadaň - Tušimice
Teplota: 8 °C (pocitová: 4.4 °C)
Vítr: 2 m/s z(e) 200°
Počasí: déšť
Dohlednost: 35 km
Zákl. oblačnosti: 2/8 1200 m
Vlhkost: 87%
Karlovy Vary (K.Vary) 13.11.2018 20:00 UTC Zobrazit data
Místo: Karlovy Vary
Teplota: 7 °C (pocitová: 2 °C)
Vítr: 3 m/s z(e) 250°
Počasí: oblačno
Dohlednost: 20 km
Zákl. oblačnosti: 3/8 660 m
Vlhkost: 87%
Kocelovice (Kocelovice) 13.11.2018 20:00 UTC Zobrazit data
Místo: Kocelovice
Teplota: 8 °C (pocitová: 1.6 °C)
Vítr: 6 m/s z(e) 260°
Počasí: skorojasno
Dohlednost: 15 km
Zákl. oblačnosti: 2/8 1290 m
Vlhkost: 87%
Kopisty (Kopisty) 13.11.2018 18:00 UTC Zobrazit data
Místo: Kopisty
Teplota: 4 °C (pocitová: -0.8 °C)
Vítr: 2 m/s z(e) 200°
Počasí: skorojasno
Dohlednost: 10 km
Zákl. oblačnosti: 1/8 2400 m
Vlhkost: 100%
Kostelní Myslová (K.Myslova) 13.11.2018 20:00 UTC Zobrazit data
Místo: Kostelní Myslová
Teplota: 8 °C (pocitová: 3.3 °C)
Vítr: 3 m/s z(e) 290°
Počasí: skoro zataženo
Dohlednost: 22 km
Zákl. oblačnosti: 7/8 360 m
Vlhkost: 93%
Křešín - Kramolín (Kramolin) 13.11.2018 20:00 UTC Zobrazit data
Místo: Křešín - Kramolín
Teplota: 7 °C (pocitová: 1.2 °C)
Vítr: 4 m/s z(e) 260°
Počasí: skorojasno
Dohlednost: 17 km
Zákl. oblačnosti: 1/8 1500 m
Vlhkost: 87%
Kuchařovice - Znojmo (Kucharovic) 13.11.2018 20:00 UTC Zobrazit data
Místo: Kuchařovice - Znojmo
Teplota: 9 °C (pocitová: 3.4 °C)
Vítr: 5 m/s z(e) 300°
Počasí: oblačno
Dohlednost: 40 km
Zákl. oblačnosti: 3/8 2700 m
Vlhkost: 82%
Liberec (Liberec) 13.11.2018 20:00 UTC Zobrazit data
Místo: Liberec
Teplota: 7 °C (pocitová: 3.1 °C)
Vítr: 2 m/s z(e) 90°
Počasí: zataženo
Dohlednost: 8 km
Zákl. oblačnosti: 6/8 1350 m
Vlhkost: 93%
Luká (Luka) 13.11.2018 20:00 UTC Zobrazit data
Místo: Luká
Teplota: 9 °C (pocitová: 3.4 °C)
Vítr: 5 m/s z(e) 310°
Počasí: zataženo
Dohlednost: 16 km
Zákl. oblačnosti: 8/8 270 m
Vlhkost: 87%
Lysá Hora (Lysa Hora) 13.11.2018 17:00 UTC Zobrazit data
Místo: Lysá Hora
Teplota: 7 °C (pocitová: -0.3 °C)
Vítr: 7 m/s z(e) 280°
Počasí: skoro zataženo
Dohlednost: 11 km
Zákl. oblačnosti: 2/8 90 m;5/8 330 m
Vlhkost: 93%
Milešovka (Milesovka) 13.11.2018 20:00 UTC Zobrazit data
Místo: Milešovka
Teplota: 6 °C (pocitová: -2.6 °C)
Vítr: 10 m/s z(e) 280°
Počasí: skorojasno
Dohlednost: 65 km
Zákl. oblačnosti: 2/8 1200 m
Vlhkost: 87%
Mošnov (Ostrava/Mo) 13.11.2018 20:00 UTC Zobrazit data
Místo: Mošnov
Teplota: 10 °C (pocitová: 4.8 °C)
Vítr: 5 m/s z(e) 230°
Počasí: skoro zataženo
Dohlednost: 6 km
Zákl. oblačnosti: 7/8 1380 m
Vlhkost: 94%
Náměšť nad Oslavou (Namest n/O) 13.11.2018 20:00 UTC Zobrazit data
Místo: Náměšť nad Oslavou
Teplota: 7 °C (pocitová: 0.6 °C)
Vítr: 5 m/s z(e) 290°
Počasí: slunečno
Dohlednost: 15 km
Zákl. oblačnosti: N/A
Vlhkost: 93%
Pardubice (Pardubice) 13.11.2018 20:00 UTC Zobrazit data
Místo: Pardubice
Teplota: 9 °C (pocitová: 4.7 °C)
Vítr: 3 m/s z(e) 260°
Počasí: skoro zataženo
Dohlednost: 10 km
Zákl. oblačnosti: 6/8 1800 m
Vlhkost: 87%
Pec pod Sněžkou (Pec p.Snez) 13.11.2018 20:00 UTC Zobrazit data
Místo: Pec pod Sněžkou
Teplota: 5 °C (pocitová: 0.5 °C)
Vítr: 2 m/s z(e) 200°
Počasí: skoro zataženo
Dohlednost: 20 km
Zákl. oblačnosti: 7/8 600 m
Vlhkost: 93%
Plzeň město - Mikulka (Plzen/Miku) 13.11.2018 20:00 UTC Zobrazit data
Místo: Plzeň město - Mikulka
Teplota: 7 °C (pocitová: 2 °C)
Vítr: 3 m/s z(e) 230°
Počasí: oblačno
Dohlednost: 15 km
Zákl. oblačnosti: 3/8 750 m
Vlhkost: 93%
Polom (Polom) 13.11.2018 13:00 UTC Zobrazit data
Místo: Polom
Teplota: 9 °C (pocitová: 3.9 °C)
Vítr: 4 m/s z(e) 200°
Počasí: zataženo
Dohlednost: 1000 m
Zákl. oblačnosti: 8/8 90 m
Vlhkost: 94%
Praha - Karlov (Praha/Kar) 13.11.2018 20:00 UTC Zobrazit data
Místo: Praha - Karlov
Teplota: 9 °C (pocitová: 3.9 °C)
Vítr: 4 m/s z(e) 230°
Počasí: slunečno
Dohlednost: 30 km
Zákl. oblačnosti: N/A
Vlhkost: 82%
Praha - Kbely (Praha/Kbe) 13.11.2018 20:00 UTC Zobrazit data
Místo: Praha - Kbely
Teplota: 9 °C (pocitová: 3.4 °C)
Vítr: 5 m/s z(e) 230°
Počasí: skorojasno
Dohlednost: 20 km
Zákl. oblačnosti: 1/8 1800 m
Vlhkost: 87%
Praha - Libuš (Praha/Lib) 13.11.2018 20:00 UTC Zobrazit data
Místo: Praha - Libuš
Teplota: 9 °C (pocitová: 5.6 °C)
Vítr: 2 m/s z(e) 0°
Počasí: slunečno
Dohlednost: 21 km
Zákl. oblačnosti: N/A
Vlhkost: 87%
Praha - Ruzyně (Praha/Ru) 13.11.2018 20:00 UTC Zobrazit data
Místo: Praha - Ruzyně
Teplota: 8 °C (pocitová: 1.6 °C)
Vítr: 6 m/s z(e) 240°
Počasí: skorojasno
Dohlednost: 30 km
Zákl. oblačnosti: 1/8 1500 m
Vlhkost: 93%
Přibyslav (Pribyslav) 13.11.2018 20:00 UTC Zobrazit data
Místo: Přibyslav
Teplota: 8 °C (pocitová: 2 °C)
Vítr: 5 m/s z(e) 280°
Počasí: oblačno
Dohlednost: 20 km
Zákl. oblačnosti: 3/8 1470 m
Vlhkost: 87%
Přimda (Primda) 13.11.2018 20:00 UTC Zobrazit data
Místo: Přimda
Teplota: 6 °C (pocitová: -1.2 °C)
Vítr: 6 m/s z(e) 270°
Počasí: zataženo
Dohlednost: 12 km
Zákl. oblačnosti: 8/8 60 m
Vlhkost: 93%
Šerák (Serak) 13.11.2018 16:00 UTC Zobrazit data
Místo: Šerák
Teplota: 5 °C (pocitová: -3.2 °C)
Vítr: 7 m/s z(e) 260°
Počasí: déšť
Dohlednost: 100 m
Zákl. oblačnosti: 7/8 30 m
Vlhkost: 100%
Svratouch (Svratouch) 13.11.2018 20:00 UTC Zobrazit data
Místo: Svratouch
Teplota: 7 °C (pocitová: -0.3 °C)
Vítr: 7 m/s z(e) 290°
Počasí: skoro zataženo
Dohlednost: 19 km
Zákl. oblačnosti: 1/8 210 m;5/8 1260 m
Vlhkost: 87%
Temelín (Temelin) 13.11.2018 20:00 UTC Zobrazit data
Místo: Temelín
Teplota: 7 °C (pocitová: 2 °C)
Vítr: 3 m/s z(e) 280°
Počasí: slunečno
Dohlednost: 35 km
Zákl. oblačnosti: N/A
Vlhkost: 93%
Ústí nad Labem - Kočkov (Usti n/L) 13.11.2018 20:00 UTC Zobrazit data
Místo: Ústí nad Labem - Kočkov
Teplota: 7 °C (pocitová: 2 °C)
Vítr: 3 m/s z(e) 240°
Počasí: oblačno
Dohlednost: 20 km
Zákl. oblačnosti: 3/8 810 m
Vlhkost: 93%
Ústí nad Orlicí (Usti n/O) 13.11.2018 20:00 UTC Zobrazit data
Místo: Ústí nad Orlicí
Teplota: 8 °C (pocitová: 4.4 °C)
Vítr: 2 m/s z(e) 300°
Počasí: zataženo
Dohlednost: 5 km
Zákl. oblačnosti: 4/8 240 m;6/8 600 m
Vlhkost: 100%
Aalborg (EKYT) 13.11.2018 15:50 UTC Zobrazit METAR
EKYT 131550Z 21009KT CAVOK 09/08 Q1013 TEMPO 4000 SHRA BKN012
Aarhus (EKAH) 19.10.2018 06:50 UTC Zobrazit METAR
EKAH 190650Z 23001KT 9999 MIFG NSC 03/03 Q1025
Abu Dhabi (OMAA) 13.11.2018 20:00 UTC Zobrazit METAR
OMAA 132000Z 28006KT CAVOK 26/19 Q1013 NOSIG
Abuja (DNAA) 13.11.2018 20:00 UTC Zobrazit METAR
DNAA 132000Z 08003KT 040V110 CAVOK 26/18 Q1011 NOSIG
Accra (DGAA) 13.11.2018 20:00 UTC Zobrazit METAR
DGAA 132000Z 20011KT 9999 FEW015 29/26 Q1009 NOSIG
Addis Abeba (HAAB) 13.11.2018 20:00 UTC Zobrazit METAR
HAAB 132000Z 06010KT 9999 FEW026 13/07 Q1026
Agana (PGUM) 13.11.2018 19:54 UTC Zobrazit METAR
PGUM 131954Z 06006KT 10SM CLR 26/24 A2984 RMK AO2 SLP096 T02560239
Ahe Island (NTHE) Zatím nenačteno  
Akureyri (BIAR) 13.11.2018 20:00 UTC Zobrazit METAR
BIAR 132000Z 35004KT 9999 FEW021 OVC041 03/03 Q0997
Almaty (UAAA) Zatím nenačteno  
Amman (OJAM) 13.11.2018 20:00 UTC Zobrazit METAR
OJAM 132000Z 09003KT 4000 BR NSC 14/13 Q1014 NOSIG
Amsterdam (EHAM) 13.11.2018 19:55 UTC Zobrazit METAR
EHAM 131955Z 21009KT CAVOK 09/08 Q1026 NOSIG
Antananarivo (FMMI) 13.11.2018 19:00 UTC Zobrazit METAR
FMMI 131900Z 14008KT 9999 VCTS FEW017 BKN020 18/14 Q1022 NOSIG
1 2 3 ... 9 Další
Reklama

Počasí na Váš email

Emaily jsou bez reklamy a bez spamu



Odhlásit newsletter

Reklama


Lunární kalendář

  • 15.11.
  • 23.11.
  • 30.11.
  • 07.12.



Reklama


Reklama
Povinné ručení
Reklama



Reklama